Time;durP1;ratioP1;P1;durP2;ratioP2;P2;SDS_P1;SDS_P2;PMS_P1;PMS_P2;Temp;Humidity;BMP_temperature;BMP_pressure;BME280_temperature;BME280_humidity;BME280_pressure;Samples;Min_cycle;Max_cycle;Signal;HPM_P1;HPM_P2
2024/01/27 00:00:14;;;;;;;27.27;14.82;;;;;;;29.28;66.33;101528.84;5046537;28;70090;-37
2024/01/27 00:02:44;;;;;;;27.08;14.68;;;;;;;29.34;66.19;101535.34;5042396;28;66064;-38
2024/01/27 00:05:15;;;;;;;21.20;13.13;;;;;;;29.34;66.09;101535.34;5040795;28;70134;-38
2024/01/27 00:07:46;;;;;;;25.38;14.10;;;;;;;29.36;66.41;101536.81;5039201;28;66067;-39
2024/01/27 00:10:16;;;;;;;22.90;13.73;;;;;;;29.38;66.09;101537.44;5043853;28;70070;-38
2024/01/27 00:12:47;;;;;;;18.83;12.82;;;;;;;29.34;65.94;101536.19;5046862;28;65696;-39
2024/01/27 00:15:17;;;;;;;26.27;14.50;;;;;;;29.30;66.75;101529.47;5045241;28;69987;-38
2024/01/27 00:17:48;;;;;;;24.70;14.02;;;;;;;29.33;66.40;101542.59;5045998;28;65140;-39
2024/01/27 00:20:19;;;;;;;23.13;13.77;;;;;;;29.42;65.53;101558.69;5033873;28;69551;-39
2024/01/27 00:22:49;;;;;;;26.88;14.70;;;;;;;29.42;66.91;101558.69;5044611;28;65731;-38
2024/01/27 00:25:20;;;;;;;31.77;15.80;;;;;;;29.45;67.29;101552.88;5053959;28;70526;-39
2024/01/27 00:27:50;;;;;;;33.67;16.40;;;;;;;29.20;67.08;101511.91;5038454;28;66564;-38
2024/01/27 00:30:21;;;;;;;45.92;19.30;;;;;;;29.44;66.22;101562.03;5054220;28;70416;-38
2024/01/27 00:32:52;;;;;;;42.45;20.65;;;;;;;29.22;66.54;101539.56;5053794;28;66186;-39
2024/01/27 00:35:23;;;;;;;43.45;19.88;;;;;;;29.30;67.14;101550.25;5049049;28;70515;-38
2024/01/27 00:37:53;;;;;;;40.08;17.45;;;;;;;29.35;67.39;101559.47;5037133;28;66671;-38
2024/01/27 00:40:24;;;;;;;40.28;18.13;;;;;;;29.37;68.13;101573.63;5029953;28;70189;-38
2024/01/27 00:42:54;;;;;;;47.47;18.88;;;;;;;29.37;68.13;101557.41;5052597;28;66961;-37
2024/01/27 00:45:27;;;;;;;34.65;17.80;;;;;;;29.42;68.26;101574.88;5030012;28;70592;-37
2024/01/27 00:47:58;;;;;;;31.45;16.52;;;;;;;29.42;68.27;101569.47;5030701;28;66007;-37
2024/01/27 00:50:28;;;;;;;37.22;18.10;;;;;;;29.44;68.05;101579.06;5030747;28;71420;-38
2024/01/27 00:52:59;;;;;;;47.97;26.45;;;;;;;29.50;65.42;101577.47;5047165;28;66865;-38
2024/01/27 00:55:29;;;;;;;36.95;24.50;;;;;;;29.44;64.86;101578.25;5057219;28;70055;-37
2024/01/27 00:57:59;;;;;;;35.50;23.98;;;;;;;29.45;65.20;101579.91;5070203;28;66314;-38
2024/01/27 01:00:30;;;;;;;42.42;25.23;;;;;;;29.49;64.42;101582.03;5056727;28;70290;-38
2024/01/27 01:03:01;;;;;;;34.63;22.80;;;;;;;29.50;64.59;101589.09;5042198;28;67579;-38
2024/01/27 01:05:31;;;;;;;29.73;20.50;;;;;;;29.53;64.63;101590.59;5046762;28;70127;-38
2024/01/27 01:08:02;;;;;;;50.45;24.70;;;;;;;29.57;66.54;101589.19;5055694;28;66875;-39
2024/01/27 01:10:33;;;;;;;44.03;23.83;;;;;;;29.59;67.22;101595.25;5053502;28;69622;-40
2024/01/27 01:13:04;;;;;;;44.83;22.98;;;;;;;29.58;67.01;101585.44;5036644;28;66472;-43
2024/01/27 01:15:35;;;;;;;39.17;23.83;;;;;;;29.55;67.11;101580.41;5028486;28;69009;-38
2024/01/27 01:18:06;;;;;;;56.17;23.98;;;;;;;29.45;67.35;101575.38;5053182;28;65382;-38
2024/01/27 01:20:36;;;;;;;55.90;23.17;;;;;;;29.62;67.39;101597.56;5041212;28;70597;-38
2024/01/27 01:23:07;;;;;;;43.42;21.73;;;;;;;29.54;69.20;101595.81;5038090;28;67287;-37
2024/01/27 01:25:38;;;;;;;56.13;22.33;;;;;;;29.58;69.63;101596.25;5035671;28;70585;-38
2024/01/27 01:28:08;;;;;;;45.90;21.98;;;;;;;29.58;69.77;101593.56;5041701;28;66148;-38
2024/01/27 01:30:39;;;;;;;40.72;20.83;;;;;;;29.65;69.41;101602.59;5037764;28;70886;-38
2024/01/27 01:33:11;;;;;;;42.95;20.50;;;;;;;29.69;70.00;101603.88;5060919;28;66846;-38
2024/01/27 01:35:41;;;;;;;31.95;19.23;;;;;;;29.70;69.86;101608.25;5055002;28;71600;-38
2024/01/27 01:38:12;;;;;;;36.63;19.65;;;;;;;29.44;69.36;101557.44;5037410;28;66713;-38
2024/01/27 01:40:42;;;;;;;32.25;19.83;;;;;;;29.72;69.96;101600.78;5038800;28;70011;-38
2024/01/27 01:43:13;;;;;;;54.60;20.77;;;;;;;29.71;69.46;101601.81;5035117;28;65710;-38
2024/01/27 01:45:43;;;;;;;39.72;20.33;;;;;;;29.70;71.99;101608.25;5038463;28;70188;-40
2024/01/27 01:48:14;;;;;;;43.13;22.58;;;;;;;29.38;68.85;101564.47;5033084;28;66091;-36
2024/01/27 01:50:45;;;;;;;58.83;26.10;;;;;;;29.68;67.89;101607.63;5043377;28;70467;-38
2024/01/27 01:53:15;;;;;;;48.97;24.70;;;;;;;29.65;66.77;101608.00;5056484;28;66806;-37
2024/01/27 01:55:46;;;;;;;64.22;27.40;;;;;;;29.67;67.20;101619.47;5043964;28;70859;-47
2024/01/27 01:58:17;;;;;;;50.17;26.60;;;;;;;29.67;67.00;101611.34;5041109;28;66170;-37
2024/01/27 02:00:47;;;;;;;58.53;25.65;;;;;;;29.64;67.15;101610.88;5039850;28;70551;-36
2024/01/27 02:03:18;;;;;;;57.78;26.15;;;;;;;29.68;67.29;101613.03;5053965;28;66116;-39
2024/01/27 02:05:48;;;;;;;56.60;27.17;;;;;;;29.68;67.40;101612.19;5041501;28;69824;-38
2024/01/27 02:08:19;;;;;;;61.65;27.45;;;;;;;29.69;67.73;101609.28;5060720;28;67175;-38
2024/01/27 02:10:49;;;;;;;54.83;26.52;;;;;;;29.70;66.91;101610.97;5042002;28;71217;-39
2024/01/27 02:13:21;;;;;;;57.25;26.95;;;;;;;29.71;67.41;101599.09;5049397;28;65288;-39
2024/01/27 02:15:52;;;;;;;47.58;25.38;;;;;;;29.74;67.57;101604.13;5046191;28;69228;-38
2024/01/27 02:18:22;;;;;;;62.67;25.77;;;;;;;29.75;66.70;101607.66;5036930;28;66925;-40
2024/01/27 02:20:53;;;;;;;54.85;26.90;;;;;;;29.70;66.36;101592.03;5037566;28;68663;-40
2024/01/27 02:23:24;;;;;;;53.92;29.05;;;;;;;29.77;66.19;101603.72;5056727;28;65828;-40
2024/01/27 02:25:54;;;;;;;60.10;29.13;;;;;;;29.76;66.70;101599.38;5046504;28;70076;-41
2024/01/27 02:28:26;;;;;;;60.38;29.80;;;;;;;29.80;66.92;101595.22;5035745;28;65729;-38
2024/01/27 02:30:57;;;;;;;56.90;27.48;;;;;;;29.83;67.34;101594.81;5052269;28;70365;-38
2024/01/27 02:33:27;;;;;;;59.70;27.42;;;;;;;29.83;67.87;101584.00;5056014;28;66395;-40
2024/01/27 02:35:58;;;;;;;52.40;27.10;;;;;;;29.93;67.66;101590.97;5056188;28;70393;-39
2024/01/27 02:38:29;;;;;;;68.82;26.95;;;;;;;29.97;68.17;101584.13;5047878;28;66140;-39
2024/01/27 02:40:59;;;;;;;57.33;27.75;;;;;;;29.97;68.35;101589.53;5039860;28;69830;-39
2024/01/27 02:43:30;;;;;;;57.28;27.80;;;;;;;30.01;68.39;101585.41;5031020;28;66688;-37
2024/01/27 02:46:00;;;;;;;77.43;30.48;;;;;;;29.97;66.87;101578.69;5038872;28;69271;-37
2024/01/27 02:48:31;;;;;;;53.83;28.58;;;;;;;30.03;66.31;101572.50;5031293;28;65980;-39
2024/01/27 02:51:05;;;;;;;63.83;28.88;;;;;;;29.99;67.57;101577.47;5041056;28;70185;-39
2024/01/27 02:53:35;;;;;;;51.20;27.48;;;;;;;30.08;68.31;101564.63;5043252;28;66790;-40
2024/01/27 02:56:09;;;;;;;59.65;31.73;;;;;;;30.11;66.26;101568.81;5030451;28;69913;-40
2024/01/27 02:58:42;;;;;;;78.43;32.70;;;;;;;30.07;65.22;101573.78;5028848;28;66578;-39
2024/01/27 03:01:12;;;;;;;48.25;28.45;;;;;;;30.10;65.92;101559.84;5036601;28;69253;-37
2024/01/27 03:03:43;;;;;;;55.67;26.98;;;;;;;30.14;66.29;101566.53;5040799;28;66385;-39
2024/01/27 03:06:13;;;;;;;54.15;27.45;;;;;;;30.20;65.62;101568.47;5040899;28;70646;-40
2024/01/27 03:08:44;;;;;;;47.55;25.73;;;;;;;30.16;65.40;101550.94;5040995;28;66026;-39
2024/01/27 03:11:14;;;;;;;48.20;25.73;;;;;;;30.22;66.61;101555.56;5040794;28;70082;-39
2024/01/27 03:13:45;;;;;;;43.20;24.15;;;;;;;30.21;66.83;101548.47;5038142;28;65312;-40
2024/01/27 03:16:17;;;;;;;43.90;22.88;;;;;;;30.26;66.89;101551.44;5037290;28;69056;-40
2024/01/27 03:18:48;;;;;;;51.63;23.92;;;;;;;30.17;67.44;101530.97;5038191;28;66225;-38
2024/01/27 03:21:19;;;;;;;43.33;22.67;;;;;;;30.27;67.53;101542.28;5038957;28;69175;-39
2024/01/27 03:23:50;;;;;;;41.88;22.90;;;;;;;30.34;66.76;101533.34;5040774;28;66267;-39
2024/01/27 03:26:20;;;;;;;26.73;18.85;;;;;;;30.33;66.12;101529.81;5018946;28;69072;-39
2024/01/27 03:28:50;;;;;;;28.20;19.45;;;;;;;30.35;65.89;101532.34;5035075;28;65881;-38
2024/01/27 03:31:21;;;;;;;24.65;18.40;;;;;;;30.40;66.42;101530.69;5046062;28;69873;-38
2024/01/27 03:33:51;;;;;;;21.23;17.58;;;;;;;30.45;65.80;101521.94;5048901;28;66658;-38
2024/01/27 03:36:22;;;;;;;18.95;16.77;;;;;;;30.48;65.93;101527.00;5040759;28;70101;-39
2024/01/27 03:38:53;;;;;;;26.48;16.95;;;;;;;30.53;65.89;101524.47;5046163;28;65838;-38
2024/01/27 03:41:23;;;;;;;23.65;17.23;;;;;;;30.56;65.70;101523.25;5032425;28;69634;-38
2024/01/27 03:43:54;;;;;;;33.95;18.63;;;;;;;30.50;65.90;101508.66;5034520;28;65746;-40
2024/01/27 03:46:24;;;;;;;25.70;17.90;;;;;;;30.58;65.84;101505.75;5041307;28;69397;-39
2024/01/27 03:48:56;;;;;;;22.13;17.20;;;;;;;30.66;65.90;101518.28;5049778;28;66768;-40
2024/01/27 03:51:27;;;;;;;23.43;17.07;;;;;;;30.68;65.78;101505.38;5027612;28;70122;-39
2024/01/27 03:53:57;;;;;;;20.98;17.77;;;;;;;30.43;65.53;101462.63;5045784;28;66188;-38
2024/01/27 03:56:28;;;;;;;25.58;17.67;;;;;;;30.73;65.83;101502.91;5054480;28;71139;-41
2024/01/27 03:58:59;;;;;;;27.10;18.07;;;;;;;30.77;65.80;101503.31;5042369;28;66082;-39
2024/01/27 04:01:29;;;;;;;28.95;18.02;;;;;;;30.80;66.03;101494.81;5040250;28;71407;-40
2024/01/27 04:04:00;;;;;;;22.08;17.58;;;;;;;30.82;65.38;101490.03;5033109;28;65321;-39
2024/01/27 04:06:37;;;;;;;20.00;17.42;;;;;;;30.84;65.62;101496.06;5036925;28;70510;-38
2024/01/27 04:09:08;;;;;;;21.90;17.55;;;;;;;30.89;65.60;101496.28;5037658;28;66784;-38
2024/01/27 04:11:39;;;;;;;22.33;16.57;;;;;;;30.89;65.46;101488.16;5040629;28;70132;-39
2024/01/27 04:14:10;;;;;;;27.10;16.52;;;;;;;30.93;65.57;101486.72;5040610;28;66744;-39
2024/01/27 04:16:40;;;;;;;19.48;17.33;;;;;;;30.95;65.60;101468.38;5054431;28;69930;-37
2024/01/27 04:19:11;;;;;;;21.95;17.00;;;;;;;30.98;65.28;101467.13;5052592;28;65443;-40
2024/01/27 04:21:42;;;;;;;21.90;16.40;;;;;;;31.00;65.44;101468.59;5034986;28;70252;-38
2024/01/27 04:24:13;;;;;;;36.78;21.00;;;;;;;30.96;67.63;101453.78;5053920;28;65761;-40
2024/01/27 04:26:44;;;;;;;32.95;21.00;;;;;;;30.94;67.85;101456.69;5048720;28;70968;-39
2024/01/27 04:29:15;;;;;;;34.97;21.17;;;;;;;30.94;68.48;101450.44;5052449;28;66691;-39
2024/01/27 04:31:45;;;;;;;37.85;21.88;;;;;;;30.68;68.38;101397.91;5043878;28;69562;-39
2024/01/27 04:34:16;;;;;;;33.00;21.27;;;;;;;30.91;70.03;101438.16;5044783;28;66815;-39
2024/01/27 04:36:47;;;;;;;48.83;23.88;;;;;;;30.88;70.92;101430.44;5051894;28;70659;-38
2024/01/27 04:39:17;;;;;;;51.75;23.73;;;;;;;30.94;71.75;101424.19;5055306;28;66784;-41
2024/01/27 04:41:48;;;;;;;46.65;24.10;;;;;;;30.98;72.20;101427.34;5042325;28;70064;-37
2024/01/27 04:44:20;;;;;;;48.40;26.05;;;;;;;30.97;73.15;101414.81;5006676;28;66424;-37
2024/01/27 04:46:50;;;;;;;117.93;44.42;;;;;;;31.02;74.02;101414.19;5050851;28;68946;-40
2024/01/27 04:49:21;;;;;;;101.68;46.88;;;;;;;31.04;70.12;101407.53;5038872;28;66821;-40
2024/01/27 04:51:52;;;;;;;100.65;44.35;;;;;;;30.61;69.70;101332.06;5040964;28;70318;-39
2024/01/27 04:54:22;;;;;;;99.13;43.75;;;;;;;31.13;69.18;101400.84;5034279;28;66848;-38
2024/01/27 04:56:53;;;;;;;106.85;45.50;;;;;;;31.21;69.40;101393.56;5043960;28;69225;-39
2024/01/27 04:59:24;;;;;;;110.63;46.03;;;;;;;31.24;69.05;101385.00;5067992;28;65502;-40
2024/01/27 05:01:55;;;;;;;97.90;43.45;;;;;;;31.27;68.96;101385.41;5039692;28;68925;-39
2024/01/27 05:04:26;;;;;;;96.18;41.67;;;;;;;31.26;68.97;101372.06;5038294;28;66015;-38
2024/01/27 05:06:57;;;;;;;118.30;45.78;;;;;;;31.23;69.79;101383.31;5025044;28;69521;-39
2024/01/27 05:09:27;;;;;;;101.65;43.22;;;;;;;30.95;67.64;101360.00;5043533;28;66379;-39
2024/01/27 05:12:00;;;;;;;102.50;42.17;;;;;;;30.81;65.87;101363.75;5061204;28;69344;-37
2024/01/27 05:14:30;;;;;;;93.65;40.92;;;;;;;30.76;65.45;101367.06;5044234;28;66407;-37
2024/01/27 05:17:01;;;;;;;95.05;40.03;;;;;;;30.65;65.23;101359.56;5042910;28;69797;-39
2024/01/27 05:19:31;;;;;;;88.60;37.50;;;;;;;30.60;65.48;101368.31;5055493;28;66479;-39
2024/01/27 05:22:02;;;;;;;94.85;34.30;;;;;;;30.49;64.29;101364.34;5041793;28;69699;-38
2024/01/27 05:24:33;;;;;;;97.80;35.15;;;;;;;30.43;64.34;101348.09;5043917;28;66066;-38
2024/01/27 05:27:04;;;;;;;92.13;34.90;;;;;;;30.33;63.68;101355.78;5041568;28;70531;-38
2024/01/27 05:29:36;;;;;;;111.03;34.88;;;;;;;30.13;63.60;101317.81;5053935;28;65972;-40
2024/01/27 05:32:07;;;;;;;82.55;32.67;;;;;;;30.19;64.41;101336.75;5051449;28;69913;-41
2024/01/27 05:34:37;;;;;;;76.40;31.40;;;;;;;30.13;63.96;101336.75;5043809;28;65639;-39
2024/01/27 05:37:13;;;;;;;72.88;29.65;;;;;;;30.10;63.01;101332.59;5034770;28;69275;-42
2024/01/27 05:39:43;;;;;;;;;;;;;;;29.93;62.91;101331.31;5062002;28;66282;-39
2024/01/27 05:42:16;;;;;;;79.88;26.73;;;;;;;29.79;61.54;101301.50;5049821;28;70761;-41
2024/01/27 05:44:49;;;;;;;62.22;27.00;;;;;;;29.90;60.31;101310.91;5038897;28;66451;-43
2024/01/27 05:47:20;;;;;;;61.73;25.53;;;;;;;29.88;60.03;101304.84;5047499;28;70625;-39
2024/01/27 05:49:54;;;;;;;59.80;26.42;;;;;;;29.79;59.49;101295.25;5075142;28;66471;-40
2024/01/27 05:52:25;;;;;;;60.70;25.08;;;;;;;29.77;58.88;101298.16;5061543;28;70355;-41
2024/01/27 05:54:56;;;;;;;59.43;24.70;;;;;;;29.69;58.56;101284.81;5061826;28;67018;-39
2024/01/27 05:57:26;;;;;;;49.30;23.40;;;;;;;29.66;58.02;101271.72;5058498;28;69645;-41
2024/01/27 05:59:57;;;;;;;53.53;25.67;;;;;;;29.70;57.49;101275.69;5061632;28;66164;-41
2024/01/27 06:02:28;;;;;;;52.00;23.23;;;;;;;29.65;57.24;101266.53;5055102;28;70071;-42
2024/01/27 06:04:58;;;;;;;49.47;22.80;;;;;;;29.57;56.48;101246.69;5036624;28;65651;-40
2024/01/27 06:07:29;;;;;;;44.53;22.08;;;;;;;29.66;56.88;101258.19;5040377;28;69512;-39
2024/01/27 06:10:00;;;;;;;42.90;21.25;;;;;;;29.60;55.98;101238.16;5029064;28;66972;-40
2024/01/27 06:12:31;;;;;;;52.90;22.27;;;;;;;29.65;57.14;101253.81;5039993;28;70404;-41
2024/01/27 06:15:03;;;;;;;51.42;26.08;;;;;;;29.70;58.52;101259.47;5025000;28;66874;-41
2024/01/27 06:17:33;;;;;;;41.45;23.25;;;;;;;29.60;58.32;101210.31;5020325;28;70009;-39
2024/01/27 06:20:05;;;;;;;45.20;22.40;;;;;;;29.74;57.98;101227.44;5038587;28;66333;-40
2024/01/27 06:22:35;;;;;;;34.60;22.58;;;;;;;29.56;59.27;101182.00;5042583;28;69938;-39
2024/01/27 06:25:09;;;;;;;37.50;21.25;;;;;;;29.92;59.52;101219.56;5041186;28;66292;-39
2024/01/27 06:27:43;;;;;;;29.77;20.52;;;;;;;30.07;60.36;101211.25;5043688;28;68899;-40
2024/01/27 06:30:15;;;;;;;34.33;20.60;;;;;;;30.11;60.52;101198.97;5042954;28;65739;-40
2024/01/27 06:32:47;;;;;;;;;;;;;;;30.15;59.17;101208.34;5043690;28;69845;-40
2024/01/27 06:35:18;;;;;;;31.20;19.80;;;;;;;30.31;60.38;101195.47;5043239;28;65765;-39
2024/01/27 06:37:50;;;;;;;26.10;19.38;;;;;;;30.48;60.56;101197.56;5044431;28;69155;-40
2024/01/27 06:40:20;;;;;;;34.13;19.38;;;;;;;30.59;60.17;101192.50;5041034;28;65804;-41
2024/01/27 06:42:51;;;;;;;27.50;19.55;;;;;;;30.69;60.18;101193.75;5037306;28;70724;-40
2024/01/27 06:45:21;;;;;;;28.98;20.20;;;;;;;30.73;59.54;101189.59;5033933;28;65312;-41
2024/01/27 06:47:52;;;;;;;36.72;20.60;;;;;;;30.77;59.27;101181.03;5044879;28;70673;-39
2024/01/27 06:50:23;;;;;;;39.15;21.52;;;;;;;30.66;56.23;101172.50;5043364;28;66021;-40
2024/01/27 06:52:53;;;;;;;39.28;23.00;;;;;;;30.61;55.70;101174.19;5042966;28;70115;-39
2024/01/27 06:55:23;;;;;;;35.95;20.70;;;;;;;30.54;56.00;101174.22;5059973;28;65498;-38
2024/01/27 06:57:54;;;;;;;39.95;21.35;;;;;;;30.47;54.43;101165.25;5044081;28;70196;-40
2024/01/27 07:00:24;;;;;;;34.35;22.38;;;;;;;30.36;54.95;101149.66;5045126;28;66652;-40
2024/01/27 07:02:57;;;;;;;34.72;20.90;;;;;;;30.46;54.46;101166.31;5057873;28;69733;-41
2024/01/27 07:05:28;;;;;;;29.05;20.98;;;;;;;30.41;53.70;101152.56;5036801;28;66602;-39
2024/01/27 07:07:58;;;;;;;26.27;19.85;;;;;;;30.38;53.57;101147.59;5055869;28;70201;-39
2024/01/27 07:10:29;;;;;;;27.92;21.00;;;;;;;30.35;53.23;101145.31;5039657;28;65955;-39
2024/01/27 07:12:59;;;;;;;31.63;20.20;;;;;;;30.34;54.77;101144.47;5051609;28;70485;-40
2024/01/27 07:15:30;;;;;;;25.98;19.35;;;;;;;30.26;53.25;101134.69;5041894;28;67494;-40
2024/01/27 07:18:01;;;;;;;32.17;20.42;;;;;;;30.26;53.19;101134.69;5036006;28;69635;-39
2024/01/27 07:20:31;;;;;;;34.65;20.38;;;;;;;30.25;53.09;101124.91;5048226;28;66118;-40
2024/01/27 07:23:02;;;;;;;26.20;19.70;;;;;;;30.20;52.43;101124.69;5045711;28;69873;-40
2024/01/27 07:25:33;;;;;;;29.02;19.55;;;;;;;30.18;52.23;101126.75;5048422;28;65968;-41
2024/01/27 07:28:04;;;;;;;29.17;19.30;;;;;;;30.12;52.18;101103.25;5045078;28;69198;-39
2024/01/27 07:30:35;;;;;;;20.50;18.50;;;;;;;30.18;52.90;101117.81;5073995;28;66694;-40
2024/01/27 07:33:05;;;;;;;25.40;17.92;;;;;;;30.15;52.67;101110.94;5056233;28;69773;-39
2024/01/27 07:35:36;;;;;;;26.73;19.33;;;;;;;30.13;51.89;101106.78;5040343;28;66069;-40
2024/01/27 07:38:08;;;;;;;26.63;18.52;;;;;;;30.08;51.34;101099.28;5037969;28;70593;-40
2024/01/27 07:40:38;;;;;;;;;;;;;;;29.94;51.52;101109.28;5041113;28;65378;-47
2024/01/27 07:43:08;;;;;;;25.05;16.88;;;;;;;30.08;52.96;101104.69;5039189;28;70508;-39
2024/01/27 07:45:38;;;;;;;26.10;17.25;;;;;;;30.03;51.17;101096.38;5029493;28;65657;-40
2024/01/27 07:48:09;;;;;;;22.58;17.38;;;;;;;30.04;50.96;101093.47;5036398;28;68873;-41
2024/01/27 07:50:40;;;;;;;27.83;18.58;;;;;;;29.74;51.63;101055.22;5040484;28;66527;-38
2024/01/27 07:53:10;;;;;;;26.40;18.05;;;;;;;29.99;52.05;101084.31;5032983;28;69492;-40
2024/01/27 07:55:41;;;;;;;18.98;16.85;;;;;;;30.05;51.25;101091.59;5037322;28;65662;-40
2024/01/27 07:58:11;;;;;;;19.50;17.45;;;;;;;30.04;51.26;101087.25;5033784;28;70256;-38
2024/01/27 08:00:41;;;;;;;20.08;17.30;;;;;;;29.99;50.55;101073.50;5053991;28;66689;-41
2024/01/27 08:03:12;;;;;;;20.60;16.60;;;;;;;30.08;53.04;101072.25;5054178;28;69423;-40
2024/01/27 08:05:43;;;;;;;17.10;15.43;;;;;;;30.25;54.36;101078.91;5061527;28;65065;-41
2024/01/27 08:08:13;;;;;;;18.48;16.60;;;;;;;30.42;55.27;101078.44;5063976;28;70312;-40
2024/01/27 08:10:45;;;;;;;21.70;18.08;;;;;;;30.15;55.72;101001.91;5061478;28;66174;-41
2024/01/27 08:13:15;;;;;;;20.90;18.17;;;;;;;30.70;56.04;101057.34;5062557;28;70249;-41
2024/01/27 08:15:46;;;;;;;22.20;18.20;;;;;;;30.85;56.98;101067.09;5037499;28;66684;-40
2024/01/27 08:18:17;;;;;;;25.95;18.42;;;;;;;30.88;57.13;101050.41;5078488;28;70339;-39
2024/01/27 08:20:47;;;;;;;27.75;19.10;;;;;;;31.00;57.17;101037.81;5048529;28;66146;-41
2024/01/27 08:23:18;;;;;;;21.52;18.25;;;;;;;31.16;57.03;101042.72;5063460;28;70146;-40
2024/01/27 08:25:52;;;;;;;30.75;21.25;;;;;;;31.30;57.45;101058.91;5060603;28;66262;-39
2024/01/27 08:28:23;;;;;;;28.45;20.42;;;;;;;31.40;57.45;101048.44;5039190;28;69833;-38
2024/01/27 08:30:53;;;;;;;28.50;21.23;;;;;;;31.47;57.83;101060.03;5054916;28;66056;-38
2024/01/27 08:33:24;;;;;;;44.50;26.17;;;;;;;31.65;56.83;101050.31;5036659;28;69945;-39
2024/01/27 08:35:55;;;;;;;49.67;26.92;;;;;;;31.75;56.38;101050.66;5030302;28;66248;-39
2024/01/27 08:38:25;;;;;;;44.47;26.42;;;;;;;31.80;56.36;101048.94;5031441;28;70009;-42
2024/01/27 08:40:56;;;;;;;45.28;26.65;;;;;;;31.90;56.32;101058.44;5037753;28;66269;-39
2024/01/27 08:43:26;;;;;;;41.47;27.27;;;;;;;31.93;55.95;101052.59;5031868;28;70626;-40
2024/01/27 08:45:56;;;;;;;46.83;27.02;;;;;;;31.99;55.90;101060.69;5025582;28;65786;-39
2024/01/27 08:48:27;;;;;;;48.65;26.65;;;;;;;32.02;56.28;101057.50;5026154;28;70015;-38
2024/01/27 08:50:58;;;;;;;40.90;25.95;;;;;;;32.08;55.84;101061.22;5032138;28;67084;-40
2024/01/27 08:53:28;;;;;;;41.85;27.70;;;;;;;32.09;56.36;101048.47;5033983;28;69619;-39
2024/01/27 08:55:59;;;;;;;46.33;28.30;;;;;;;32.19;55.83;101063.19;5032372;28;64783;-38
2024/01/27 08:58:29;;;;;;;48.35;28.20;;;;;;;32.21;55.95;101062.97;5023022;28;70670;-38
2024/01/27 09:01:05;;;;;;;54.03;31.35;;;;;;;32.27;56.10;101060.19;5027151;28;65556;-39
2024/01/27 09:03:36;;;;;;;59.47;32.03;;;;;;;32.31;56.20;101063.25;5026842;28;70343;-38
2024/01/27 09:06:10;;;;;;;60.63;34.27;;;;;;;32.35;56.35;101067.19;5025217;28;67285;-39
2024/01/27 09:08:41;;;;;;;62.65;34.45;;;;;;;32.39;56.44;101062.13;5024283;28;70460;-40
2024/01/27 09:11:11;;;;;;;65.53;34.33;;;;;;;32.34;56.46;101060.09;5033675;28;66067;-39
2024/01/27 09:13:42;;;;;;;53.08;32.22;;;;;;;32.42;56.57;101057.06;5025523;28;71308;-39
2024/01/27 09:16:13;;;;;;;62.72;33.40;;;;;;;32.45;56.98;101059.34;5029245;28;66357;-39
2024/01/27 09:18:44;;;;;;;61.17;32.60;;;;;;;32.42;56.70;101057.06;5032292;28;69166;-39
2024/01/27 09:21:20;;;;;;;57.00;35.17;;;;;;;32.44;57.34;101054.16;5027989;28;66751;-38
2024/01/27 09:23:50;;;;;;;68.63;34.28;;;;;;;32.56;57.39;101068.66;5037032;28;69421;-40
2024/01/27 09:26:22;;;;;;;63.42;35.90;;;;;;;32.60;57.60;101064.44;5030644;28;66325;-40
2024/01/27 09:28:56;;;;;;;61.28;34.95;;;;;;;32.60;57.48;101075.28;5036956;28;69962;-40
2024/01/27 09:31:28;;;;;;;67.00;34.95;;;;;;;32.65;57.80;101074.59;5031110;28;66356;-42
2024/01/27 09:33:58;;;;;;;;;;;;;;;32.51;58.18;101076.63;5039933;28;70583;-38
2024/01/27 09:36:28;;;;;;;56.03;33.53;;;;;;;32.66;57.89;101081.69;5045050;28;65975;-40
2024/01/27 09:38:59;;;;;;;64.95;33.08;;;;;;;32.60;58.21;101074.47;5040721;28;70022;-41
2024/01/27 09:41:32;;;;;;;56.42;33.75;;;;;;;31.95;58.16;100971.81;5034000;28;65908;-39
2024/01/27 09:44:04;;;;;;;53.95;31.92;;;;;;;32.64;58.16;101081.09;5027414;28;70568;-39
2024/01/27 09:46:35;;;;;;;58.97;32.90;;;;;;;32.53;58.13;101076.41;5035092;28;66626;-40
2024/01/27 09:49:08;;;;;;;68.10;33.40;;;;;;;32.68;58.33;101093.16;5022095;28;70418;-40
2024/01/27 09:51:38;;;;;;;52.15;30.98;;;;;;;32.62;58.90;101099.50;5038395;28;65896;-37
2024/01/27 09:54:09;;;;;;;48.90;28.50;;;;;;;32.63;59.06;101099.28;5040357;28;70524;-39
2024/01/27 09:56:40;;;;;;;63.03;27.05;;;;;;;32.64;59.39;101091.97;5033253;28;66991;-38
2024/01/27 09:59:14;;;;;;;58.08;22.95;;;;;;;32.71;59.67;101114.44;5041459;28;70057;-37
2024/01/27 10:01:45;;;;;;;54.15;22.20;;;;;;;32.71;59.34;101114.44;5044084;28;66410;-43
2024/01/27 10:04:18;;;;;;;42.83;19.58;;;;;;;32.69;59.58;101116.56;5045765;28;69942;-37
2024/01/27 10:06:50;;;;;;;46.45;20.48;;;;;;;32.73;59.98;101123.19;5026418;28;66268;-39
2024/01/27 10:09:21;;;;;;;69.47;20.92;;;;;;;32.74;59.54;101119.41;5047967;28;69158;-38
2024/01/27 10:11:54;;;;;;;40.13;19.33;;;;;;;32.63;60.23;101106.59;5057020;28;64670;-36
2024/01/27 10:14:24;;;;;;;42.78;20.85;;;;;;;32.59;59.65;101108.91;5037057;28;70062;-38
2024/01/27 10:16:55;;;;;;;41.58;19.25;;;;;;;32.68;59.75;101125.75;5046777;28;65787;-40
2024/01/27 10:19:25;;;;;;;42.50;18.70;;;;;;;32.63;60.10;101122.91;5042089;28;69214;-40
2024/01/27 10:22:05;;;;;;;42.60;17.85;;;;;;;32.49;60.04;101117.59;5041604;28;66466;-38
2024/01/27 10:24:35;;;;;;;35.50;17.08;;;;;;;32.52;59.98;101120.94;5044289;28;69873;-38
2024/01/27 10:27:07;;;;;;;30.45;16.85;;;;;;;32.30;59.95;101102.34;5037750;28;66947;-39
2024/01/27 10:29:38;;;;;;;33.28;17.52;;;;;;;32.51;59.86;101140.97;5046475;28;69778;-41
2024/01/27 10:32:11;;;;;;;51.42;16.88;;;;;;;32.53;60.29;101150.56;5042056;28;65909;-39
2024/01/27 10:34:43;;;;;;;31.13;16.00;;;;;;;32.45;60.66;101143.50;5027505;28;70150;-43
2024/01/27 10:37:14;;;;;;;30.70;16.45;;;;;;;32.42;60.84;101143.97;5025011;28;66706;-39
2024/01/27 10:39:44;;;;;;;34.53;17.35;;;;;;;32.38;60.66;101131.91;5026346;28;70353;-39
2024/01/27 10:42:16;;;;;;;34.10;16.13;;;;;;;32.42;60.94;101141.25;5032026;28;66399;-39
2024/01/27 10:44:47;;;;;;;25.35;15.95;;;;;;;32.37;61.03;101145.69;5023665;28;69553;-39
2024/01/27 10:47:20;;;;;;;28.33;15.60;;;;;;;32.28;60.98;101120.72;5025427;28;66427;-40
2024/01/27 10:49:52;;;;;;;29.38;15.60;;;;;;;32.08;60.98;101099.22;5031527;28;70624;-39
2024/01/27 10:52:33;;;;;;;28.33;14.73;;;;;;;31.98;61.21;101088.03;5016787;28;65301;-42
2024/01/27 10:55:08;;;;;;;32.78;14.60;;;;;;;32.36;61.08;101154.91;5023223;28;69168;-40
2024/01/27 10:57:40;;;;;;;28.83;14.95;;;;;;;32.35;61.11;101164.94;5027773;28;66307;-39
2024/01/27 11:00:13;;;;;;;22.83;12.93;;;;;;;32.34;61.06;101168.69;5033521;28;70219;-40
2024/01/27 11:02:45;;;;;;;24.35;13.60;;;;;;;32.33;61.24;101166.22;5045344;28;66691;-38
2024/01/27 11:05:17;;;;;;;26.60;13.05;;;;;;;32.31;61.20;101174.56;5030789;28;70493;-40
2024/01/27 11:07:49;;;;;;;22.02;12.95;;;;;;;32.31;61.91;101174.56;5034549;28;66398;-39
2024/01/27 11:10:18;;;;;;;;;;;;;;;32.15;62.17;101175.97;5027654;28;70431;-39
2024/01/27 11:12:52;;;;;;;28.45;13.70;;;;;;;32.27;61.89;101179.63;5042161;28;66633;-38
2024/01/27 11:15:23;;;;;;;23.20;12.68;;;;;;;32.26;61.58;101182.53;5046210;28;70813;-42
2024/01/27 11:18:04;;;;;;;23.33;12.87;;;;;;;32.19;61.98;101173.63;5035538;28;66442;-40
2024/01/27 11:20:36;;;;;;;24.10;12.50;;;;;;;32.26;62.02;101190.69;5044073;28;68992;-39
2024/01/27 11:23:16;;;;;;;19.55;12.30;;;;;;;32.22;61.96;101194.91;5030031;28;66193;-38
2024/01/27 11:25:46;;;;;;;19.02;12.43;;;;;;;32.20;63.25;101188.88;5031375;28;70140;-39